Time;durP1;ratioP1;P1;durP2;ratioP2;P2;SDS_P1;SDS_P2;PMS_P1;PMS_P2;Temp;Humidity;BMP_temperature;BMP_pressure;BME280_temperature;BME280_humidity;BME280_pressure;Samples;Min_cycle;Max_cycle;Signal;HPM_P1;HPM_P2
2021/07/09 00:02:02;;;;;;;4.78;2.83;;;;;;;19.29;44.77;99153.28;5043847;28;20143;-82
2021/07/09 00:04:28;;;;;;;5.63;2.80;;;;;;;19.17;44.98;99131.22;5041585;28;20547;-80
2021/07/09 00:06:55;;;;;;;5.43;3.65;;;;;;;19.26;44.92;99148.28;5041294;28;20044;-80
2021/07/09 00:09:21;;;;;;;4.22;2.83;;;;;;;19.19;44.99;99139.19;5057893;28;20382;-81
2021/07/09 00:11:48;;;;;;;6.18;3.28;;;;;;;19.16;45.04;99146.63;5074671;28;20043;-81
2021/07/09 00:14:16;;;;;;;3.72;2.80;;;;;;;19.17;45.33;99142.91;5070900;28;20060;-82
2021/07/09 00:16:44;;;;;;;5.93;3.00;;;;;;;19.16;45.36;99149.34;5054513;28;20044;-82
2021/07/09 00:19:09;;;;;;;7.95;3.30;;;;;;;19.17;45.30;99147.47;5072483;28;20044;-81
2021/07/09 00:21:36;;;;;;;4.80;2.88;;;;;;;19.16;45.31;99141.22;5038278;28;20403;-82
2021/07/09 00:24:03;;;;;;;4.70;2.72;;;;;;;19.14;45.27;99148.72;5054451;28;20499;-82
2021/07/09 00:26:29;;;;;;;5.28;2.85;;;;;;;19.11;45.57;99148.22;5054546;28;20044;-82
2021/07/09 00:28:55;;;;;;;5.13;3.00;;;;;;;19.11;46.04;99140.94;5021774;28;20056;-83
2021/07/09 00:31:21;;;;;;;6.18;3.42;;;;;;;19.13;45.58;99141.56;5054478;28;20041;-83
2021/07/09 00:33:47;;;;;;;5.18;3.35;;;;;;;19.02;46.19;99144.72;5054375;28;20055;-82
2021/07/09 00:36:13;;;;;;;4.13;3.40;;;;;;;18.98;46.52;99132.56;5072431;28;20090;-81
2021/07/09 00:38:39;;;;;;;4.88;3.47;;;;;;;19.00;46.24;99144.06;5037778;28;20048;-80
2021/07/09 00:41:05;;;;;;;7.32;3.83;;;;;;;19.04;46.25;99152.69;5073470;28;20129;-80
2021/07/09 00:43:31;;;;;;;7.97;3.72;;;;;;;19.06;46.33;99142.50;5041846;28;20040;-81
2021/07/09 00:45:57;;;;;;;8.38;4.00;;;;;;;19.11;46.40;99149.06;5074652;28;20049;-79
2021/07/09 00:48:23;;;;;;;7.50;3.85;;;;;;;19.10;46.33;99147.34;5075598;28;20045;-80
2021/07/09 00:50:49;;;;;;;8.27;3.58;;;;;;;19.15;46.16;99155.81;5074557;28;20143;-80
2021/07/09 00:53:15;;;;;;;5.40;3.80;;;;;;;19.14;46.54;99155.97;5058263;28;20088;-80
2021/07/09 00:55:41;;;;;;;7.65;3.83;;;;;;;19.20;46.20;99149.81;5058031;28;20059;-82
2021/07/09 00:58:07;;;;;;;7.00;3.70;;;;;;;19.22;46.12;99146.91;5069603;28;20467;-83
2021/07/09 01:00:33;;;;;;;6.78;4.05;;;;;;;19.21;46.48;99161.50;5075149;28;20083;-79
2021/07/09 01:03:04;;;;;;;8.35;3.90;;;;;;;19.25;46.39;99155.53;5074602;28;20068;-79
2021/07/09 01:05:30;;;;;;;5.78;4.00;;;;;;;19.34;46.38;99156.31;5074173;28;20048;-82
2021/07/09 01:07:56;;;;;;;7.20;3.80;;;;;;;19.28;46.52;99154.31;5057619;28;20407;-82
2021/07/09 01:10:22;;;;;;;6.82;4.30;;;;;;;19.35;46.54;99158.00;5075478;28;20052;-81
2021/07/09 01:12:48;;;;;;;5.63;3.80;;;;;;;19.36;46.56;99157.78;5074092;28;20051;-82
2021/07/09 01:15:16;;;;;;;5.80;3.95;;;;;;;19.30;46.78;99157.72;5057222;28;20529;-81
2021/07/09 01:17:42;;;;;;;8.57;4.40;;;;;;;19.32;46.79;99155.66;5057513;28;20045;-81
2021/07/09 01:20:10;;;;;;;5.82;4.32;;;;;;;19.41;46.59;99146.44;5057195;28;20045;-81
2021/07/09 01:22:42;;;;;;;7.30;3.72;;;;;;;19.50;46.33;99145.31;5057692;28;20107;-81
2021/07/09 01:25:09;;;;;;;5.80;4.32;;;;;;;19.56;46.47;99147.28;5074142;28;20048;-81
2021/07/09 01:27:36;;;;;;;8.73;4.30;;;;;;;19.63;46.26;99153.69;5024282;28;20040;-80
2021/07/09 01:30:07;;;;;;;6.25;3.85;;;;;;;19.67;46.62;99158.72;5077432;28;20094;-80
2021/07/09 01:32:33;;;;;;;8.93;4.00;;;;;;;19.64;46.50;99127.41;5081922;28;20044;-80
2021/07/09 01:34:59;;;;;;;7.40;4.18;;;;;;;19.77;46.61;99143.03;5027185;28;20037;-79
2021/07/09 01:37:25;;;;;;;18.00;4.22;;;;;;;19.87;46.07;99143.59;5057389;28;20036;-80
2021/07/09 01:39:50;;;;;;;9.15;4.03;;;;;;;19.92;46.18;99143.84;5056927;28;20125;-80
2021/07/09 01:42:16;;;;;;;9.38;3.53;;;;;;;19.96;46.11;99142.44;5074784;28;20048;-82
2021/07/09 01:44:42;;;;;;;14.13;4.18;;;;;;;20.02;46.07;99136.28;5074966;28;20452;-80
2021/07/09 01:47:08;;;;;;;9.00;4.20;;;;;;;20.11;46.36;99145.16;5056676;28;20453;-87
2021/07/09 01:49:51;;;;;;;4.80;3.60;;;;;;;20.18;46.09;99148.78;5073482;28;20076;-82
2021/07/09 01:52:17;;;;;;;8.95;3.90;;;;;;;20.28;45.96;99153.94;5056118;28;20062;-78
2021/07/09 01:54:43;;;;;;;8.63;3.80;;;;;;;20.28;45.79;99141.22;5074339;28;20078;-78
2021/07/09 01:57:10;;;;;;;9.48;4.13;;;;;;;20.32;45.66;99141.69;5056592;28;20076;-77
2021/07/09 01:59:36;;;;;;;8.88;3.53;;;;;;;20.41;45.97;99140.50;5056522;28;20091;-77
2021/07/09 02:02:02;;;;;;;7.82;3.67;;;;;;;20.45;45.74;99136.38;5073211;28;20110;-77
2021/07/09 02:04:28;;;;;;;6.90;3.67;;;;;;;20.48;45.77;99132.44;5074164;28;20044;-77
2021/07/09 02:06:54;;;;;;;5.38;3.50;;;;;;;20.57;45.62;99134.91;5039905;28;20041;-78
2021/07/09 02:09:20;;;;;;;4.18;3.70;;;;;;;20.65;45.73;99146.66;5073978;28;20131;-79
2021/07/09 02:11:46;;;;;;;8.50;3.70;;;;;;;20.72;45.53;99137.53;5074208;28;20043;-77
2021/07/09 02:14:12;;;;;;;5.55;3.70;;;;;;;20.75;45.66;99136.31;5078879;28;20513;-76
2021/07/09 02:16:40;;;;;;;6.68;3.55;;;;;;;20.83;45.41;99145.19;5043510;28;20145;-77
2021/07/09 02:19:07;;;;;;;7.57;3.88;;;;;;;20.93;45.28;99141.31;5059102;28;20055;-76
2021/07/09 02:21:33;;;;;;;10.88;4.00;;;;;;;20.96;45.22;99136.34;5075727;28;20048;-77
2021/07/09 02:23:59;;;;;;;9.02;4.18;;;;;;;21.02;45.22;99135.53;5059311;28;20074;-76
2021/07/09 02:26:25;;;;;;;16.17;3.85;;;;;;;21.07;45.32;99135.81;5059861;28;20044;-77
2021/07/09 02:28:51;;;;;;;11.65;4.20;;;;;;;21.14;45.37;99141.31;5094010;28;20620;-77
2021/07/09 02:31:17;;;;;;;8.02;3.85;;;;;;;21.14;45.33;99129.56;5059476;28;20080;-76
2021/07/09 02:33:43;;;;;;;14.43;4.13;;;;;;;21.20;45.48;99134.25;5093653;28;20079;-78
2021/07/09 02:36:09;;;;;;;8.90;3.92;;;;;;;21.28;45.28;99131.38;5074343;28;20048;-77
2021/07/09 02:38:35;;;;;;;11.88;4.10;;;;;;;21.34;45.24;99130.63;5025730;28;20133;-77
2021/07/09 02:41:01;;;;;;;16.15;4.45;;;;;;;21.37;44.98;99119.34;5058916;28;20379;-77
2021/07/09 02:43:27;;;;;;;7.00;4.25;;;;;;;21.41;45.18;99128.81;5058846;28;20040;-77
2021/07/09 02:45:53;;;;;;;10.50;4.80;;;;;;;21.48;45.06;99128.84;5075298;28;20036;-76
2021/07/09 02:48:19;;;;;;;11.57;4.32;;;;;;;21.57;45.18;99124.94;5093182;28;20052;-77
2021/07/09 02:50:45;;;;;;;8.50;4.88;;;;;;;21.64;44.66;99130.41;5093357;28;20047;-77
2021/07/09 02:53:12;;;;;;;16.30;6.43;;;;;;;21.71;44.72;99131.31;5075470;28;20069;-78
2021/07/09 02:55:38;;;;;;;14.38;5.47;;;;;;;21.75;44.77;99132.59;5057382;28;20130;-77
2021/07/09 02:58:04;;;;;;;10.18;6.18;;;;;;;21.91;44.33;99132.25;5093246;28;20048;-78
2021/07/09 03:00:30;;;;;;;11.65;6.50;;;;;;;21.97;44.29;99131.47;5058681;28;20043;-79
2021/07/09 03:02:56;;;;;;;14.02;6.97;;;;;;;22.15;43.91;99132.81;5075171;28;20042;-78
2021/07/09 03:05:22;;;;;;;16.85;8.43;;;;;;;22.18;43.76;99135.97;5074800;28;20126;-77
2021/07/09 03:07:48;;;;;;;14.73;9.32;;;;;;;22.07;43.98;99140.06;5093037;28;20376;-79
2021/07/09 03:10:14;;;;;;;24.33;10.70;;;;;;;22.22;43.69;99139.13;5058293;28;20086;-79
2021/07/09 03:12:40;;;;;;;27.27;8.70;;;;;;;22.23;43.81;99130.78;5093001;28;20157;-77
2021/07/09 03:15:07;;;;;;;23.92;10.77;;;;;;;22.33;43.49;99133.09;5093587;28;20060;-78
2021/07/09 03:17:33;;;;;;;26.25;12.93;;;;;;;22.46;43.56;99122.28;5041554;28;20499;-76
2021/07/09 03:19:59;;;;;;;24.98;12.40;;;;;;;22.51;43.29;99133.38;5074699;28;20046;-78
2021/07/09 03:22:25;;;;;;;28.33;14.10;;;;;;;22.68;43.29;99127.53;5074839;28;20375;-79
2021/07/09 03:24:51;;;;;;;26.08;15.57;;;;;;;22.74;42.78;99132.19;5074704;28;20115;-78
2021/07/09 03:27:17;;;;;;;31.08;15.70;;;;;;;22.77;43.06;99124.44;5092793;28;20068;-78
2021/07/09 03:29:43;;;;;;;27.50;16.50;;;;;;;22.84;42.88;99135.34;5041163;28;20413;-78
2021/07/09 03:32:10;;;;;;;41.53;22.42;;;;;;;22.92;42.68;99129.72;5074948;28;20135;-79
2021/07/09 03:34:37;;;;;;;31.95;18.92;;;;;;;22.93;42.88;99125.94;5077559;28;20122;-79
2021/07/09 03:37:03;;;;;;;20.58;12.07;;;;;;;23.02;42.73;99127.44;5111655;28;20383;-81
2021/07/09 03:39:29;;;;;;;24.40;10.63;;;;;;;23.17;42.76;99127.25;5105768;28;20043;-78
2021/07/09 03:41:55;;;;;;;20.40;11.45;;;;;;;23.35;42.36;99129.31;5058004;28;20153;-79
2021/07/09 03:44:20;;;;;;;18.50;11.23;;;;;;;23.41;42.25;99128.50;5091999;28;20447;-76
2021/07/09 03:46:46;;;;;;;16.75;9.73;;;;;;;23.49;42.17;99125.53;5057697;28;20144;-78
2021/07/09 03:49:12;;;;;;;14.95;7.93;;;;;;;23.56;42.16;99130.16;5057343;28;20143;-78
2021/07/09 03:51:39;;;;;;;16.75;6.57;;;;;;;23.48;42.20;99123.88;5074641;28;20050;-78
2021/07/09 03:54:05;;;;;;;18.30;6.15;;;;;;;23.65;42.31;99121.53;5092602;28;20047;-79
2021/07/09 03:56:31;;;;;;;17.50;5.28;;;;;;;23.81;42.01;99120.28;5057661;28;20044;-79
2021/07/09 03:59:01;;;;;;;14.45;5.03;;;;;;;23.90;42.02;99121.72;5057647;28;20148;-79
2021/07/09 04:01:27;;;;;;;14.77;6.18;;;;;;;24.09;41.90;99121.88;5095151;28;20039;-78
2021/07/09 04:03:53;;;;;;;9.70;4.53;;;;;;;24.24;41.49;99116.97;5094538;28;20154;-78
2021/07/09 04:06:19;;;;;;;19.65;5.85;;;;;;;24.38;40.99;99118.59;5077708;28;20051;-77
2021/07/09 04:08:45;;;;;;;16.33;4.97;;;;;;;24.32;40.88;99122.19;5094614;28;20039;-78
2021/07/09 04:11:11;;;;;;;12.00;4.95;;;;;;;24.27;41.47;99123.91;5112427;28;20062;-81
2021/07/09 04:13:37;;;;;;;11.38;5.30;;;;;;;24.45;41.14;99130.38;5094538;28;20130;-76
2021/07/09 04:16:03;;;;;;;13.27;5.22;;;;;;;24.61;40.80;99117.25;5094867;28;20138;-78
2021/07/09 04:18:29;;;;;;;15.23;4.75;;;;;;;24.72;41.00;99119.28;5081988;28;20132;-79
2021/07/09 04:20:55;;;;;;;14.50;5.20;;;;;;;24.86;40.52;99126.34;5096319;28;20043;-79
2021/07/09 04:23:20;;;;;;;10.82;5.30;;;;;;;24.89;40.56;99109.47;5085505;28;20415;-79
2021/07/09 04:25:46;;;;;;;7.03;4.72;;;;;;;24.89;40.29;99119.59;5116566;28;20067;-77
2021/07/09 04:28:12;;;;;;;12.65;5.15;;;;;;;24.89;40.24;99108.66;5064620;28;20114;-78
2021/07/09 04:30:38;;;;;;;11.05;6.20;;;;;;;24.92;40.25;99105.47;5098203;28;20496;-77
2021/07/09 04:33:04;;;;;;;10.18;5.85;;;;;;;24.96;40.50;99113.00;5116544;28;20047;-77
2021/07/09 04:35:30;;;;;;;14.57;5.93;;;;;;;25.11;40.28;99095.47;5116115;28;20063;-77
2021/07/09 04:37:56;;;;;;;14.27;5.60;;;;;;;25.32;40.20;99105.19;5116030;28;20134;-79
2021/07/09 04:40:21;;;;;;;16.17;5.78;;;;;;;25.41;39.89;99096.47;5115970;28;20477;-80
2021/07/09 04:42:47;;;;;;;11.88;6.00;;;;;;;25.43;40.18;99093.53;5116250;28;20144;-80
2021/07/09 04:45:14;;;;;;;9.07;5.97;;;;;;;25.52;40.01;99088.59;5097149;28;20446;-80
2021/07/09 04:47:40;;;;;;;15.23;5.60;;;;;;;25.69;39.91;99092.41;5080122;28;20048;-78
2021/07/09 04:50:06;;;;;;;11.90;5.82;;;;;;;25.77;39.59;99089.38;5115866;28;20135;-78
2021/07/09 04:52:32;;;;;;;12.57;5.30;;;;;;;25.87;39.75;99088.84;5097666;28;20494;-78
2021/07/09 04:54:58;;;;;;;20.02;5.32;;;;;;;25.92;39.39;99097.25;5116119;28;20192;-78
2021/07/09 04:57:24;;;;;;;13.63;5.80;;;;;;;25.88;39.63;99096.88;5116055;28;20485;-77
2021/07/09 04:59:49;;;;;;;14.32;6.28;;;;;;;25.86;39.48;99093.50;5115419;28;20524;-76
2021/07/09 05:02:15;;;;;;;21.00;6.35;;;;;;;25.97;39.38;99089.16;5115524;28;20047;-75
2021/07/09 05:04:41;;;;;;;15.20;6.35;;;;;;;26.01;38.71;99084.91;5115992;28;20193;-76
2021/07/09 05:07:07;;;;;;;9.35;6.05;;;;;;;26.00;39.33;99090.63;5098140;28;20050;-75
2021/07/09 05:09:33;;;;;;;10.80;6.22;;;;;;;26.11;39.49;99089.84;5115847;28;20043;-76
2021/07/09 05:11:59;;;;;;;11.60;6.13;;;;;;;26.31;38.77;99097.81;5097757;28;20058;-76
2021/07/09 05:14:25;;;;;;;12.38;6.88;;;;;;;26.45;38.26;99091.09;5116057;28;20063;-79
2021/07/09 05:16:50;;;;;;;13.40;6.53;;;;;;;26.63;38.32;99088.34;5115670;28;20557;-76
2021/07/09 05:19:16;;;;;;;15.93;6.10;;;;;;;26.71;37.69;99083.59;5115497;28;20043;-78
2021/07/09 05:21:42;;;;;;;13.55;6.30;;;;;;;26.69;37.75;99086.56;5073962;28;20464;-77
2021/07/09 05:24:10;;;;;;;32.80;7.72;;;;;;;26.77;37.30;99082.63;5099535;28;20061;-77
2021/07/09 05:26:36;;;;;;;16.65;6.15;;;;;;;26.90;36.73;99087.94;5076773;28;20044;-77
2021/07/09 05:29:03;;;;;;;10.90;5.78;;;;;;;27.02;36.62;99076.97;5076007;28;20106;-78
2021/07/09 05:31:29;;;;;;;20.38;6.32;;;;;;;27.08;36.65;99073.28;5077518;28;20086;-78
2021/07/09 05:33:55;;;;;;;12.20;6.78;;;;;;;27.23;36.65;99072.84;5095086;28;20131;-76
2021/07/09 05:36:21;;;;;;;14.20;6.45;;;;;;;27.30;36.33;99066.16;5077297;28;20585;-78
2021/07/09 05:38:48;;;;;;;11.57;6.75;;;;;;;27.18;36.41;99067.25;5076904;28;20036;-77
2021/07/09 05:41:15;;;;;;;12.02;5.90;;;;;;;27.22;36.51;99074.75;5094820;28;20068;-78
2021/07/09 05:43:42;;;;;;;13.57;6.10;;;;;;;27.32;36.53;99072.25;5043373;28;20044;-79
2021/07/09 05:46:08;;;;;;;10.32;6.13;;;;;;;27.38;35.78;99059.47;5094890;28;20082;-78
2021/07/09 05:48:34;;;;;;;17.80;6.30;;;;;;;27.52;36.04;99068.31;5094396;28;20046;-77
2021/07/09 05:51:00;;;;;;;14.73;6.20;;;;;;;27.74;35.41;99066.66;5094492;28;20131;-78
2021/07/09 05:53:25;;;;;;;17.50;6.93;;;;;;;27.70;34.80;99059.13;5093013;28;20482;-76
2021/07/09 05:55:52;;;;;;;16.95;6.80;;;;;;;27.63;35.41;99064.72;5091918;28;20121;-77
2021/07/09 05:58:18;;;;;;;14.13;7.35;;;;;;;27.60;35.62;99057.81;5092422;28;20067;-76
2021/07/09 06:00:44;;;;;;;14.55;6.90;;;;;;;27.84;35.35;99057.81;5093900;28;20143;-76
2021/07/09 06:03:10;;;;;;;11.85;6.35;;;;;;;28.02;35.04;99056.78;5094347;28;20070;-76
2021/07/09 06:05:36;;;;;;;10.10;6.20;;;;;;;28.14;34.56;99054.88;5094682;28;20047;-77
2021/07/09 06:08:03;;;;;;;15.60;6.82;;;;;;;28.24;33.81;99044.06;5076231;28;20043;-78
2021/07/09 06:10:29;;;;;;;18.15;7.32;;;;;;;28.24;34.02;99060.53;5076360;28;20135;-77
2021/07/09 06:12:55;;;;;;;27.05;7.03;;;;;;;28.21;33.90;99044.56;5075925;28;20096;-78
2021/07/09 06:15:21;;;;;;;21.00;7.20;;;;;;;28.21;33.44;99054.72;5093860;28;20132;-78
2021/07/09 06:17:47;;;;;;;14.50;6.22;;;;;;;28.31;33.60;99050.25;5075467;28;20435;-78
2021/07/09 06:20:13;;;;;;;17.73;6.22;;;;;;;28.59;33.08;99045.03;5075507;28;20044;-78
2021/07/09 06:22:40;;;;;;;26.67;6.65;;;;;;;28.59;32.24;99039.53;5093496;28;20063;-78
2021/07/09 06:25:06;;;;;;;18.13;7.75;;;;;;;28.53;32.48;99033.09;5059163;28;20048;-78
2021/07/09 06:27:32;;;;;;;12.85;6.70;;;;;;;28.55;32.53;99039.19;5076008;28;20055;-78
2021/07/09 06:29:57;;;;;;;20.20;6.43;;;;;;;28.62;32.33;99037.09;5094168;28;20036;-78
2021/07/09 06:32:23;;;;;;;22.15;6.95;;;;;;;28.55;32.06;99034.53;5059726;28;20043;-78
2021/07/09 06:34:49;;;;;;;23.80;6.57;;;;;;;28.73;31.79;99030.69;5075717;28;20504;-78
2021/07/09 06:37:15;;;;;;;22.13;6.13;;;;;;;28.59;31.29;99023.03;5075951;28;20040;-80
2021/07/09 06:39:41;;;;;;;17.50;6.32;;;;;;;28.72;31.26;99040.03;5042160;28;20051;-80
2021/07/09 06:42:07;;;;;;;19.75;6.90;;;;;;;28.88;31.37;99015.53;5093815;28;20130;-80
2021/07/09 06:44:33;;;;;;;121.45;9.85;;;;;;;28.80;31.38;99014.88;5093820;28;20119;-79
2021/07/09 06:46:59;;;;;;;18.35;6.43;;;;;;;28.79;31.29;99024.22;5093913;28;20138;-78
2021/07/09 06:49:25;;;;;;;15.10;6.22;;;;;;;28.88;30.77;99018.28;5093853;28;20406;-79
2021/07/09 06:51:54;;;;;;;12.57;6.03;;;;;;;28.86;30.41;99025.97;5075758;28;20051;-77
2021/07/09 06:54:22;;;;;;;18.02;6.57;;;;;;;28.77;30.61;99018.13;5093478;28;20080;-78
2021/07/09 06:56:48;;;;;;;29.13;6.55;;;;;;;28.82;30.54;99013.81;5058276;28;20505;-79
2021/07/09 06:59:17;;;;;;;19.67;5.68;;;;;;;28.94;30.60;99009.03;5093367;28;20048;-78
2021/07/09 07:01:43;;;;;;;8.90;5.55;;;;;;;29.16;30.64;99004.47;5075328;28;20044;-81
2021/07/09 07:04:09;;;;;;;22.08;6.03;;;;;;;29.38;29.87;99010.03;5058959;28;20047;-78
2021/07/09 07:06:36;;;;;;;39.35;6.60;;;;;;;29.43;29.80;99001.00;5042000;28;20093;-78
2021/07/09 07:09:03;;;;;;;20.67;6.45;;;;;;;29.28;30.04;99007.94;5058309;28;20044;-77
2021/07/09 07:11:29;;;;;;;10.40;6.35;;;;;;;29.23;30.62;98996.88;5075244;28;20445;-77
2021/07/09 07:13:55;;;;;;;19.65;6.32;;;;;;;29.29;30.34;99020.63;5075510;28;20105;-79
2021/07/09 07:16:21;;;;;;;14.95;5.47;;;;;;;29.26;30.86;99007.38;5093916;28;20044;-78
2021/07/09 07:18:48;;;;;;;17.27;5.82;;;;;;;29.12;31.04;99000.56;5103517;28;20588;-78
2021/07/09 07:21:14;;;;;;;19.33;6.30;;;;;;;29.28;31.02;98990.59;5094940;28;20048;-78
2021/07/09 07:23:40;;;;;;;19.55;5.60;;;;;;;29.33;30.56;99000.84;5095851;28;20090;-77
2021/07/09 07:26:06;;;;;;;22.38;5.57;;;;;;;29.43;30.68;99003.75;5113174;28;20130;-77
2021/07/09 07:28:31;;;;;;;22.90;5.78;;;;;;;29.47;30.53;98969.13;5095520;28;20130;-78
2021/07/09 07:30:57;;;;;;;20.92;5.57;;;;;;;29.57;30.08;98985.78;5113341;28;20452;-79
2021/07/09 07:33:23;;;;;;;12.98;5.65;;;;;;;29.70;30.83;98979.06;5095363;28;20118;-80
2021/07/09 07:35:49;;;;;;;14.70;5.78;;;;;;;29.95;30.25;98975.81;5078543;28;20494;-78
2021/07/09 07:38:15;;;;;;;16.92;5.70;;;;;;;30.16;29.91;98976.84;5112869;28;20035;-79
2021/07/09 07:40:41;;;;;;;17.05;5.45;;;;;;;29.97;30.15;98963.41;5078268;28;20096;-77
2021/07/09 07:43:07;;;;;;;16.10;5.82;;;;;;;29.99;30.00;98961.25;5112761;28;20500;-79
2021/07/09 07:45:33;;;;;;;16.33;5.30;;;;;;;29.87;30.22;98962.50;5090059;28;20039;-78
2021/07/09 07:48:00;;;;;;;14.68;5.80;;;;;;;30.11;30.14;98955.59;5109309;28;20393;-79
2021/07/09 07:50:27;;;;;;;24.20;6.43;;;;;;;30.34;29.64;98967.41;5103539;28;20134;-79
2021/07/09 07:52:53;;;;;;;11.70;5.37;;;;;;;30.34;29.38;98953.63;5074776;28;20046;-80
2021/07/09 07:55:19;;;;;;;18.88;5.57;;;;;;;30.50;29.56;98955.44;5093236;28;20036;-77
2021/07/09 07:57:45;;;;;;;8.23;5.50;;;;;;;30.40;30.00;98958.13;5092732;28;20094;-77
2021/07/09 08:00:11;;;;;;;11.88;5.55;;;;;;;30.30;30.23;98941.47;5074670;28;20138;-79
2021/07/09 08:02:41;;;;;;;13.88;5.25;;;;;;;30.52;30.28;98944.16;5025893;28;20043;-79
2021/07/09 08:05:07;;;;;;;11.18;5.47;;;;;;;30.66;29.87;98948.97;5074691;28;20497;-78
2021/07/09 08:07:34;;;;;;;12.65;5.25;;;;;;;30.82;29.71;98965.66;5040191;28;20046;-78
2021/07/09 08:10:00;;;;;;;8.40;4.97;;;;;;;30.53;29.64;98938.34;5074542;28;20130;-80
2021/07/09 08:12:25;;;;;;;11.45;5.35;;;;;;;30.71;29.64;98948.16;5057730;28;20182;-78
2021/07/09 08:14:51;;;;;;;10.43;5.40;;;;;;;30.93;29.14;98937.06;5091811;28;20060;-77
2021/07/09 08:17:17;;;;;;;15.65;5.13;;;;;;;30.78;29.02;98939.69;5073899;28;20487;-79
2021/07/09 08:19:43;;;;;;;12.85;5.70;;;;;;;30.92;28.78;98957.47;5074101;28;20051;-78
2021/07/09 08:22:09;;;;;;;18.63;5.80;;;;;;;30.93;28.87;98937.88;5024367;28;20122;-79
2021/07/09 08:24:35;;;;;;;8.75;5.15;;;;;;;31.27;28.67;98947.75;5094074;28;20044;-80
2021/07/09 08:27:01;;;;;;;10.27;4.90;;;;;;;31.13;29.00;98953.72;5073796;28;20047;-81
2021/07/09 08:29:27;;;;;;;30.63;6.28;;;;;;;31.19;28.42;98941.63;5074424;28;20162;-80
2021/07/09 08:31:55;;;;;;;14.55;5.30;;;;;;;31.16;28.42;98941.34;5091997;28;20452;-81
2021/07/09 08:34:21;;;;;;;9.15;5.03;;;;;;;31.38;28.08;98943.97;5092143;28;20040;-80
2021/07/09 08:36:47;;;;;;;25.90;5.50;;;;;;;31.14;28.12;98941.63;5112021;28;20051;-80
2021/07/09 08:39:15;;;;;;;12.60;4.75;;;;;;;31.05;28.27;98943.19;5112052;28;20519;-81
2021/07/09 08:41:44;;;;;;;9.45;5.13;;;;;;;31.30;27.97;98925.13;5113957;28;20038;-83
2021/07/09 08:44:11;;;;;;;13.52;5.30;;;;;;;31.49;27.59;98934.63;5094492;28;20056;-80
2021/07/09 08:46:37;;;;;;;16.05;5.40;;;;;;;31.54;27.95;98936.59;5078783;28;20044;-83
2021/07/09 08:49:03;;;;;;;11.05;5.40;;;;;;;31.69;27.75;98931.13;5077099;28;20465;-81
2021/07/09 08:51:29;;;;;;;11.35;5.10;;;;;;;31.66;27.46;98915.91;5077741;28;20101;-86
2021/07/09 08:53:55;;;;;;;11.55;5.00;;;;;;;31.70;28.04;98927.25;5061278;28;20032;-85
2021/07/09 08:56:21;;;;;;;18.80;5.38;;;;;;;31.66;27.73;98929.72;5093965;28;20044;-85
2021/07/09 08:58:47;;;;;;;23.35;5.50;;;;;;;31.67;27.53;98919.53;5077471;28;20096;-83
2021/07/09 09:01:14;;;;;;;14.45;5.50;;;;;;;31.90;27.65;98923.78;5112719;28;20073;-84
2021/07/09 09:03:40;;;;;;;11.23;5.60;;;;;;;31.86;27.30;98898.59;5063858;28;20036;-83
2021/07/09 09:06:06;;;;;;;22.30;6.57;;;;;;;31.87;27.51;98904.97;5116313;28;20043;-82
2021/07/09 09:08:34;;;;;;;16.08;5.57;;;;;;;32.09;27.07;98904.72;5080918;28;20054;-85
2021/07/09 09:11:00;;;;;;;13.73;5.53;;;;;;;32.27;26.92;98906.09;5097834;28;20031;-84
2021/07/09 09:13:33;;;;;;;14.95;5.63;;;;;;;32.15;26.86;98904.44;5098165;28;20051;-84
2021/07/09 09:16:25;;;;;;;21.10;6.07;;;;;;;32.19;27.47;98898.38;5078633;28;20064;-84
2021/07/09 09:18:57;;;;;;;10.85;6.43;;;;;;;32.56;26.81;98903.66;5057020;28;20052;-81
2021/07/09 09:21:25;;;;;;;11.57;5.78;;;;;;;32.29;27.27;98892.84;5060448;28;20517;-81
2021/07/09 09:23:53;;;;;;;15.75;5.90;;;;;;;32.47;27.04;98900.63;5060734;28;20047;-82
2021/07/09 09:26:38;;;;;;;9.45;5.25;;;;;;;32.80;26.27;98906.72;5060697;28;20048;-82
2021/07/09 09:29:05;;;;;;;10.85;5.60;;;;;;;32.71;26.40;98900.06;5077132;28;20032;-81
2021/07/09 09:31:34;;;;;;;12.27;5.68;;;;;;;32.77;26.33;98891.47;5060409;28;20039;-82
2021/07/09 09:34:01;;;;;;;13.40;5.60;;;;;;;32.99;26.13;98896.72;5079300;28;20043;-80
2021/07/09 09:36:27;;;;;;;31.30;6.53;;;;;;;33.18;26.10;98893.38;5080523;28;20112;-83
2021/07/09 09:38:54;;;;;;;16.83;5.78;;;;;;;33.10;25.92;98892.81;5046800;28;20074;-83
2021/07/09 09:41:20;;;;;;;18.83;5.93;;;;;;;33.18;25.79;98893.38;5063563;28;20047;-82
2021/07/09 09:43:47;;;;;;;12.73;5.10;;;;;;;33.58;25.68;98887.66;5063536;28;20157;-82
2021/07/09 09:46:15;;;;;;;24.05;6.25;;;;;;;33.66;25.15;98879.88;5064146;28;20047;-82
2021/07/09 09:48:45;;;;;;;17.95;5.88;;;;;;;33.42;25.36;98877.75;5097324;28;20554;-82
2021/07/09 09:51:23;;;;;;;12.80;5.78;;;;;;;33.68;25.21;98880.44;5080760;28;20059;-82
2021/07/09 09:53:58;;;;;;;23.27;5.85;;;;;;;33.91;24.91;98878.91;5096393;28;20055;-81
2021/07/09 09:56:37;;;;;;;19.52;5.95;;;;;;;34.07;24.56;98884.06;5063879;28;20044;-81
2021/07/09 09:59:15;;;;;;;21.52;6.75;;;;;;;34.20;24.28;98873.47;5064432;28;20047;-81
2021/07/09 10:01:48;;;;;;;12.40;5.70;;;;;;;34.27;24.37;98882.28;5096770;28;20570;-81
2021/07/09 10:04:14;;;;;;;16.58;5.55;;;;;;;34.00;24.69;98844.78;5080384;28;20039;-82
2021/07/09 10:06:43;;;;;;;19.13;6.20;;;;;;;34.12;24.83;98861.03;5079837;28;20047;-81
2021/07/09 10:09:09;;;;;;;17.45;7.05;;;;;;;34.48;24.45;98858.78;5080097;28;20050;-82
2021/07/09 10:11:35;;;;;;;19.67;5.32;;;;;;;34.82;24.09;98874.59;5046471;28;20121;-83
2021/07/09 10:14:01;;;;;;;13.70;5.65;;;;;;;34.66;23.76;98879.47;5078666;28;20055;-84
2021/07/09 10:16:27;;;;;;;19.08;5.95;;;;;;;35.07;23.87;98869.91;5046760;28;20379;-84
2021/07/09 10:18:53;;;;;;;18.65;5.95;;;;;;;35.62;23.23;98867.56;5062146;28;20043;-83
2021/07/09 10:21:19;;;;;;;12.60;5.53;;;;;;;35.88;23.06;98870.81;5079362;28;20160;-83
2021/07/09 10:23:46;;;;;;;14.60;6.28;;;;;;;36.52;22.49;98866.50;5096210;28;20088;-84
2021/07/09 10:26:12;;;;;;;16.58;6.38;;;;;;;36.90;21.99;98860.84;5079821;28;20529;-84
2021/07/09 10:28:38;;;;;;;15.57;5.50;;;;;;;36.33;22.56;98852.59;5096295;28;20130;-83
2021/07/09 10:31:04;;;;;;;15.80;5.82;;;;;;;36.28;22.31;98857.44;5113939;28;20122;-83
2021/07/09 10:33:34;;;;;;;20.45;6.00;;;;;;;35.78;22.73;98857.91;5113978;28;20046;-84
2021/07/09 10:36:27;;;;;;;12.88;5.32;;;;;;;35.45;23.29;98856.94;5079135;28;20054;-83
2021/07/09 10:38:54;;;;;;;12.70;5.38;;;;;;;35.43;23.22;98853.63;5049824;28;20100;-83
2021/07/09 10:41:20;;;;;;;11.07;5.70;;;;;;;35.65;22.99;98864.19;5078904;28;20041;-82
2021/07/09 10:44:14;;;;;;;9.55;5.28;;;;;;;35.77;22.82;98870.16;5079061;28;20044;-83
2021/07/09 10:46:40;;;;;;;24.40;5.75;;;;;;;35.84;22.72;98841.97;5080660;28;20055;-84
2021/07/09 10:49:06;;;;;;;33.38;6.43;;;;;;;35.59;22.69;98857.91;5098569;28;20043;-86
2021/07/09 10:51:51;;;;;;;20.58;5.85;;;;;;;34.98;23.26;98847.47;5083788;28;20044;-85
2021/07/09 10:54:28;;;;;;;12.05;5.88;;;;;;;35.66;22.92;98855.59;5096873;28;20063;-83
2021/07/09 10:57:20;;;;;;;11.65;4.75;;;;;;;36.28;22.52;98841.56;5114920;28;20035;-77
2021/07/09 11:00:21;;;;;;;15.60;5.00;;;;;;;36.47;22.30;98842.38;5062191;28;20070;-78
2021/07/09 11:03:00;;;;;;;15.73;5.47;;;;;;;37.17;21.31;98844.16;5078724;28;20065;-79
2021/07/09 11:05:51;;;;;;;12.45;5.45;;;;;;;37.41;21.18;98841.16;5062306;28;20108;-80
2021/07/09 11:08:44;;;;;;;13.23;5.20;;;;;;;37.63;20.96;98828.41;5078871;28;20051;-79
2021/07/09 11:11:14;;;;;;;13.52;4.65;;;;;;;37.43;21.25;98838.88;5085721;28;20048;-78
2021/07/09 11:13:40;;;;;;;10.13;4.97;;;;;;;37.57;20.83;98807.34;5094089;28;20492;-79
2021/07/09 11:16:24;;;;;;;8.10;4.57;;;;;;;37.65;20.80;98840.06;5078275;28;20074;-78
2021/07/09 11:19:03;;;;;;;13.25;4.60;;;;;;;37.70;20.57;98842.75;5113484;28;20048;-78
2021/07/09 11:21:29;;;;;;;10.57;5.30;;;;;;;37.23;20.72;98850.41;5078858;28;20048;-77
2021/07/09 11:24:12;;;;;;;8.18;5.00;;;;;;;37.05;20.94;98835.47;5113284;28;20121;-77
2021/07/09 11:26:42;;;;;;;10.45;5.13;;;;;;;37.36;21.22;98837.63;5073549;28;20079;-76
2021/07/09 11:29:19;;;;;;;7.43;4.72;;;;;;;37.25;20.95;98837.00;5075425;28;20047;-78